Time;durP1;ratioP1;P1;durP2;ratioP2;P2;SDS_P1;SDS_P2;PMS_P1;PMS_P2;Temp;Humidity;BMP_temperature;BMP_pressure;BME280_temperature;BME280_humidity;BME280_pressure;Samples;Min_cycle;Max_cycle;Signal;HPM_P1;HPM_P2
2023/10/11 00:00:37;;;;;;;5.00;2.67;;;19.00;99.90;;;;;;4999326;28;20291;-72
2023/10/11 00:05:53;;;;;;;4.90;2.60;;;18.90;99.90;;;;;;5006418;28;20190;-72
2023/10/11 00:08:25;;;;;;;4.72;2.95;;;18.80;99.90;;;;;;5015567;28;20179;-72
2023/10/11 00:10:55;;;;;;;9.32;2.90;;;18.80;99.90;;;;;;5015981;28;20325;-72
2023/10/11 00:13:23;;;;;;;3.88;2.58;;;18.70;99.90;;;;;;5015608;28;20258;-72
2023/10/11 00:15:50;;;;;;;4.75;2.60;;;18.60;99.90;;;;;;5017287;28;20179;-73
2023/10/11 00:18:18;;;;;;;5.43;3.00;;;18.60;99.90;;;;;;5016341;28;20187;-72
2023/10/11 00:23:11;;;;;;;3.90;2.55;;;18.50;99.90;;;;;;5004913;28;20231;-71
2023/10/11 00:25:39;;;;;;;3.83;2.50;;;18.40;99.90;;;;;;5009596;28;20202;-70
2023/10/11 00:28:08;;;;;;;4.55;2.75;;;18.40;99.90;;;;;;5014838;28;20175;-70
2023/10/11 00:30:40;;;;;;;4.47;2.63;;;18.30;99.90;;;;;;5012229;28;20202;-71
2023/10/11 00:33:08;;;;;;;3.92;2.60;;;18.30;99.90;;;;;;5014791;28;20177;-72
2023/10/11 00:35:41;;;;;;;4.10;2.55;;;18.20;99.90;;;;;;5015708;28;20174;-71
2023/10/11 00:38:11;;;;;;;5.15;2.55;;;18.20;99.90;;;;;;5015617;28;20191;-71
2023/10/11 00:40:37;;;;;;;4.53;2.60;;;18.20;99.90;;;;;;5030909;28;20209;-70
2023/10/11 00:43:06;;;;;;;4.25;2.65;;;18.10;99.90;;;;;;5014424;28;20249;-72
2023/10/11 00:45:37;;;;;;;3.88;2.40;;;18.10;99.90;;;;;;4995694;28;20213;-70
2023/10/11 00:48:07;;;;;;;4.00;2.53;;;18.10;99.90;;;;;;5001928;28;20198;-71
2023/10/11 00:50:35;;;;;;;4.15;2.85;;;18.00;99.90;;;;;;5004833;28;20253;-72
2023/10/11 00:53:04;;;;;;;4.72;2.83;;;17.90;99.90;;;;;;5015300;28;20252;-72
2023/10/11 00:55:29;;;;;;;5.60;3.00;;;17.90;99.90;;;;;;5015572;28;20179;-72
2023/10/11 00:57:59;;;;;;;3.40;2.60;;;17.90;99.90;;;;;;5015462;28;20175;-71
2023/10/11 01:00:28;;;;;;;6.65;3.20;;;17.90;99.90;;;;;;5017765;28;20182;-74
2023/10/11 01:02:54;;;;;;;5.38;2.95;;;18.00;99.90;;;;;;5013533;28;20189;-72
2023/10/11 01:05:24;;;;;;;5.43;2.78;;;18.10;99.90;;;;;;5027460;28;20214;-71
2023/10/11 01:07:54;;;;;;;4.20;2.42;;;18.10;99.90;;;;;;5005946;28;20199;-72
2023/10/11 01:10:23;;;;;;;3.80;2.33;;;18.20;99.90;;;;;;5012032;28;20205;-72
2023/10/11 01:12:51;;;;;;;5.05;2.60;;;18.30;99.90;;;;;;5029905;28;20205;-71
2023/10/11 01:15:22;;;;;;;3.35;2.35;;;18.30;99.90;;;;;;5011487;28;20195;-71
2023/10/11 01:17:47;;;;;;;3.55;2.38;;;18.30;99.90;;;;;;5009100;28;20193;-72
2023/10/11 01:20:13;;;;;;;4.47;2.40;;;18.30;99.90;;;;;;5030867;28;20182;-72
2023/10/11 01:22:45;;;;;;;3.97;2.22;;;18.30;99.90;;;;;;5012476;28;20198;-69
2023/10/11 01:25:20;;;;;;;4.60;2.42;;;18.20;99.90;;;;;;5027183;28;20201;-72
2023/10/11 01:27:47;;;;;;;5.25;2.65;;;18.20;99.90;;;;;;5017840;28;20234;-72
2023/10/11 01:30:14;;;;;;;4.47;2.53;;;18.10;99.90;;;;;;5012465;28;20195;-73
2023/10/11 01:32:45;;;;;;;4.75;2.42;;;18.10;99.90;;;;;;5013623;28;20233;-72
2023/10/11 01:35:20;;;;;;;3.63;2.25;;;18.00;99.90;;;;;;5017715;28;20313;-71
2023/10/11 01:37:48;;;;;;;4.82;2.55;;;18.00;99.90;;;;;;5017764;28;20294;-72
2023/10/11 01:40:24;;;;;;;3.40;2.60;;;18.00;99.90;;;;;;5017719;28;20177;-71
2023/10/11 01:42:53;;;;;;;4.40;3.08;;;17.90;99.90;;;;;;5033090;28;20170;-71
2023/10/11 01:45:26;;;;;;;5.00;2.85;;;17.90;99.90;;;;;;5028177;28;20202;-71
2023/10/11 01:47:56;;;;;;;2.70;2.17;;;17.90;99.90;;;;;;5014694;28;20170;-71
2023/10/11 01:50:24;;;;;;;4.65;2.28;;;17.90;99.90;;;;;;5012729;28;20214;-72
2023/10/11 01:52:54;;;;;;;3.83;2.50;;;17.90;99.90;;;;;;5011571;28;20238;-70
2023/10/11 01:55:22;;;;;;;4.30;2.90;;;17.80;99.90;;;;;;4997191;28;20179;-69
2023/10/11 01:57:51;;;;;;;5.25;2.70;;;17.80;99.90;;;;;;5014382;28;20248;-72
2023/10/11 02:00:23;;;;;;;4.70;2.58;;;17.90;99.90;;;;;;5012014;28;20213;-71
2023/10/11 02:02:55;;;;;;;5.93;2.50;;;17.90;99.90;;;;;;5010149;28;20178;-72
2023/10/11 02:05:21;;;;;;;4.20;2.42;;;17.90;99.90;;;;;;5017984;28;20210;-72
2023/10/11 02:07:51;;;;;;;4.10;2.63;;;17.90;99.90;;;;;;5019144;28;20186;-71
2023/10/11 02:10:27;;;;;;;4.32;2.70;;;17.90;99.90;;;;;;5015447;28;20178;-72
2023/10/11 02:12:57;;;;;;;4.50;2.60;;;18.00;99.90;;;;;;5014460;28;20198;-70
2023/10/11 02:15:28;;;;;;;4.82;2.80;;;18.00;99.90;;;;;;5018192;28;20179;-72
2023/10/11 02:17:57;;;;;;;4.95;2.60;;;18.00;99.90;;;;;;5018143;28;20183;-72
2023/10/11 02:20:24;;;;;;;3.85;2.50;;;18.00;99.90;;;;;;5017855;28;20197;-72
2023/10/11 02:22:51;;;;;;;4.82;2.70;;;17.90;99.90;;;;;;5027829;28;20185;-72
2023/10/11 02:25:24;;;;;;;8.18;3.15;;;17.90;99.90;;;;;;5017720;28;20262;-72
2023/10/11 02:27:53;;;;;;;7.00;2.85;;;17.90;99.90;;;;;;5017795;28;20213;-71
2023/10/11 02:30:21;;;;;;;4.97;2.60;;;17.90;99.90;;;;;;5028949;28;20283;-71
2023/10/11 02:32:58;;;;;;;5.78;2.67;;;17.90;99.90;;;;;;5017409;28;20232;-72
2023/10/11 02:35:27;;;;;;;4.47;2.30;;;17.80;99.90;;;;;;5017872;28;20205;-71
2023/10/11 02:37:55;;;;;;;4.00;2.50;;;17.80;99.90;;;;;;5031154;28;20190;-72
2023/10/11 02:40:24;;;;;;;3.50;2.47;;;17.80;99.90;;;;;;5017930;28;20183;-72
2023/10/11 02:43:03;;;;;;;6.10;2.88;;;17.80;99.90;;;;;;5017632;28;20205;-71
2023/10/11 02:45:32;;;;;;;4.72;2.88;;;17.80;99.90;;;;;;5004000;28;20186;-71
2023/10/11 02:48:02;;;;;;;5.18;2.85;;;17.80;99.90;;;;;;5034283;28;20178;-72
2023/10/11 02:50:36;;;;;;;3.95;2.60;;;17.70;99.90;;;;;;5034304;28;20242;-72
2023/10/11 02:53:21;;;;;;;4.30;2.58;;;17.70;99.90;;;;;;5027391;28;20179;-72
2023/10/11 02:55:57;;;;;;;4.32;2.47;;;17.70;99.90;;;;;;5004380;28;20290;-72
2023/10/11 02:58:29;;;;;;;4.82;2.60;;;17.70;99.90;;;;;;5016319;28;20181;-72
2023/10/11 03:00:59;;;;;;;5.47;2.85;;;17.70;99.90;;;;;;5014613;28;20203;-72
2023/10/11 03:03:26;;;;;;;4.60;2.55;;;17.70;99.90;;;;;;5009842;28;20222;-71
2023/10/11 03:05:57;;;;;;;4.30;2.55;;;17.60;99.90;;;;;;5008068;28;20207;-71
2023/10/11 03:08:26;;;;;;;4.95;2.63;;;17.60;99.90;;;;;;5002535;28;20183;-72
2023/10/11 03:10:57;;;;;;;4.38;2.67;;;17.60;99.90;;;;;;5015700;28;20269;-72
2023/10/11 03:13:29;;;;;;;4.43;2.58;;;17.60;99.90;;;;;;5017323;28;20257;-71
2023/10/11 03:15:57;;;;;;;5.38;2.35;;;17.60;99.90;;;;;;5017041;28;20179;-72
2023/10/11 03:18:39;;;;;;;4.15;2.53;;;17.50;99.90;;;;;;5015159;28;20176;-69
2023/10/11 03:21:25;;;;;;;4.70;2.83;;;17.50;99.90;;;;;;5003074;28;20179;-72
2023/10/11 03:24:04;;;;;;;5.10;2.60;;;17.50;99.90;;;;;;5019848;28;20193;-72
2023/10/11 03:26:33;;;;;;;5.00;2.78;;;17.40;99.90;;;;;;4998781;28;20172;-72
2023/10/11 03:28:59;;;;;;;5.38;2.65;;;17.40;99.90;;;;;;5009073;28;20233;-69
2023/10/11 03:31:29;;;;;;;4.15;2.40;;;17.40;99.90;;;;;;5013608;28;20203;-72
2023/10/11 03:34:19;;;;;;;6.25;2.65;;;17.40;99.90;;;;;;5015757;28;20176;-72
2023/10/11 03:36:59;;;;;;;3.92;2.58;;;17.30;99.90;;;;;;5037060;23;20285;-72
2023/10/11 03:42:14;;;;;;;4.72;2.42;;;17.20;99.90;;;;;;4995221;28;20214;-71
2023/10/11 03:44:45;;;;;;;5.63;2.60;;;17.20;99.90;;;;;;4995967;28;20211;-72
2023/10/11 03:47:14;;;;;;;4.57;2.40;;;17.20;99.90;;;;;;5007602;28;20175;-73
2023/10/11 03:49:51;;;;;;;4.90;2.78;;;17.10;99.90;;;;;;4996442;28;20233;-70
2023/10/11 03:52:30;;;;;;;6.63;2.65;;;17.10;99.90;;;;;;4996575;28;20186;-72
2023/10/11 03:55:10;;;;;;;6.45;2.85;;;17.10;99.90;;;;;;5010376;28;20182;-72
2023/10/11 03:57:43;;;;;;;3.90;2.45;;;17.00;99.90;;;;;;5003854;28;20186;-71
2023/10/11 04:00:25;;;;;;;4.07;2.63;;;17.10;99.90;;;;;;4991927;28;20179;-72
2023/10/11 04:03:03;;;;;;;6.25;2.70;;;17.00;99.90;;;;;;4993661;28;20223;-71
2023/10/11 04:05:34;;;;;;;4.80;3.00;;;17.10;99.90;;;;;;4986474;28;20280;-72
2023/10/11 04:08:05;;;;;;;5.78;3.15;;;17.10;99.90;;;;;;4981778;28;20175;-71
2023/10/11 04:10:46;;;;;;;5.72;3.22;;;17.10;99.90;;;;;;4995125;28;20207;-71
2023/10/11 04:13:14;;;;;;;4.45;2.47;;;17.10;99.90;;;;;;4995161;28;20187;-71
2023/10/11 04:15:49;;;;;;;5.43;2.85;;;17.20;99.90;;;;;;4995437;28;20186;-68
2023/10/11 04:18:20;;;;;;;4.43;2.85;;;17.20;99.90;;;;;;4999878;28;20190;-72
2023/10/11 04:21:15;;;;;;;5.32;3.22;;;17.20;99.90;;;;;;4992072;28;20227;-69
2023/10/11 04:23:39;;;;;;;4.10;2.58;;;17.20;99.90;;;;;;4995721;28;20211;-71
2023/10/11 04:26:16;;;;;;;4.65;2.65;;;17.20;99.90;;;;;;4996109;28;20235;-70
2023/10/11 04:28:42;;;;;;;3.97;2.90;;;17.20;99.90;;;;;;4996180;28;20170;-75
2023/10/11 04:31:35;;;;;;;5.10;2.45;;;17.20;99.90;;;;;;4996042;28;20191;-74
2023/10/11 04:34:02;;;;;;;4.53;2.65;;;17.20;99.90;;;;;;4996364;28;20173;-76
2023/10/11 04:36:28;;;;;;;7.05;2.75;;;17.20;99.90;;;;;;5007689;28;20171;-70
2023/10/11 04:39:03;;;;;;;4.30;2.60;;;17.20;99.90;;;;;;5015690;28;20242;-72
2023/10/11 04:41:38;;;;;;;4.25;2.50;;;17.10;99.90;;;;;;5005857;28;20265;-72
2023/10/11 04:44:13;;;;;;;5.55;2.75;;;17.10;99.90;;;;;;4996606;28;20197;-74
2023/10/11 04:46:39;;;;;;;4.63;2.90;;;17.10;99.90;;;;;;5011020;28;20182;-71
2023/10/11 04:49:21;;;;;;;5.55;2.80;;;17.10;99.90;;;;;;4977080;28;20177;-66
2023/10/11 04:51:49;;;;;;;7.35;2.45;;;17.00;99.90;;;;;;4992659;28;20186;-72
2023/10/11 04:54:17;;;;;;;4.65;2.72;;;17.00;99.90;;;;;;4995936;28;20168;-73
2023/10/11 05:02:07;;;;;;;4.82;2.70;;;16.80;99.90;;;;;;4983747;28;20176;-70
2023/10/11 05:04:33;;;;;;;4.65;2.60;;;16.90;99.90;;;;;;4976094;28;20202;-71
2023/10/11 05:07:09;;;;;;;5.32;2.90;;;16.80;99.90;;;;;;4975693;28;20200;-71
2023/10/11 05:09:41;;;;;;;5.90;2.30;;;16.80;99.90;;;;;;4976189;28;20196;-71
2023/10/11 05:12:19;;;;;;;5.85;3.10;;;16.80;99.90;;;;;;4988996;28;20175;-68
2023/10/11 05:20:05;;;;;;;10.10;5.10;;;16.80;99.90;;;;;;4996119;28;20502;-71
2023/10/11 05:23:02;;;;;;;6.78;3.65;;;16.70;99.90;;;;;;4995172;28;20206;-69
2023/10/11 05:31:00;;;;;;;7.25;4.28;;;16.60;99.90;;;;;;4995354;28;20152;-72
2023/10/11 05:33:59;;;;;;;6.97;3.70;;;16.50;99.90;;;;;;4994962;28;20348;-71
2023/10/11 05:53:14;;;;;;;5.20;3.13;;;16.30;99.90;;;;;;5011007;28;20247;-72
2023/10/11 05:55:39;;;;;;;5.32;2.63;;;16.30;99.90;;;;;;4995027;28;20223;-72
2023/10/11 05:58:05;;;;;;;5.45;2.70;;;16.20;99.90;;;;;;4995126;28;20186;-71
2023/10/11 06:00:38;;;;;;;6.00;3.17;;;16.20;99.90;;;;;;4994873;28;20167;-70
2023/10/11 06:03:07;;;;;;;4.18;2.38;;;16.20;99.90;;;;;;4995593;28;20163;-71
2023/10/11 06:05:39;;;;;;;5.15;2.90;;;16.30;99.90;;;;;;4995742;28;20214;-71
2023/10/11 06:08:07;;;;;;;6.25;2.90;;;16.30;99.90;;;;;;4994526;28;20179;-71
2023/10/11 06:10:43;;;;;;;7.63;2.92;;;16.40;99.90;;;;;;5009932;28;20173;-70
2023/10/11 06:13:15;;;;;;;6.78;3.22;;;16.40;99.90;;;;;;5008091;28;20186;-71
2023/10/11 06:16:01;;;;;;;3.78;2.75;;;16.40;99.90;;;;;;4994811;28;20269;-70
2023/10/11 06:18:42;;;;;;;4.80;2.85;;;16.40;99.90;;;;;;5008287;28;20184;-71
2023/10/11 06:21:24;;;;;;;5.70;2.78;;;16.50;99.90;;;;;;5014555;28;20476;-71
2023/10/11 06:23:51;;;;;;;5.07;2.85;;;16.50;99.90;;;;;;4999843;28;20230;-71
2023/10/11 06:26:29;;;;;;;6.03;2.70;;;16.60;99.90;;;;;;4994709;28;20199;-71
2023/10/11 06:29:07;;;;;;;5.65;2.80;;;16.60;99.90;;;;;;4996131;28;20202;-71
2023/10/11 06:31:43;;;;;;;3.45;2.58;;;16.70;99.90;;;;;;5014215;28;20445;-70
2023/10/11 06:34:17;;;;;;;5.50;2.78;;;16.80;99.90;;;;;;5014365;28;20194;-71
2023/10/11 06:36:48;;;;;;;4.65;3.25;;;16.80;99.90;;;;;;5013988;28;20179;-71
2023/10/11 06:39:34;;;;;;;7.45;3.08;;;16.90;99.90;;;;;;4994880;28;20197;-70
2023/10/11 06:42:12;;;;;;;6.20;2.90;;;17.00;99.90;;;;;;4997578;28;20290;-71
2023/10/11 06:44:47;;;;;;;6.10;2.90;;;17.10;99.90;;;;;;4998040;28;20194;-72
2023/10/11 06:47:19;;;;;;;5.65;2.85;;;17.10;99.90;;;;;;4998197;28;20189;-70
2023/10/11 06:49:54;;;;;;;6.32;2.70;;;17.20;99.90;;;;;;4998095;28;20249;-71
2023/10/11 06:52:30;;;;;;;4.97;2.80;;;17.20;99.90;;;;;;4998091;28;20197;-71
2023/10/11 06:57:41;;;;;;;4.10;2.75;;;17.40;99.90;;;;;;4998568;28;20203;-71
2023/10/11 07:00:24;;;;;;;5.10;2.35;;;17.40;99.90;;;;;;4997610;28;20182;-71
2023/10/11 07:02:52;;;;;;;5.00;2.63;;;17.50;99.90;;;;;;4997941;28;20182;-69
2023/10/11 07:05:20;;;;;;;6.20;3.00;;;17.50;99.90;;;;;;4997679;28;20454;-70
2023/10/11 07:07:48;;;;;;;4.93;2.78;;;17.60;99.90;;;;;;4997942;28;20238;-71
2023/10/11 07:10:29;;;;;;;9.27;3.30;;;17.60;99.90;;;;;;4994992;28;20242;-70
2023/10/11 07:13:12;;;;;;;5.22;3.03;;;17.70;99.90;;;;;;4997748;28;20281;-71
2023/10/11 07:15:46;;;;;;;7.20;2.47;;;17.80;99.90;;;;;;4985768;28;20191;-71
2023/10/11 07:18:33;;;;;;;4.03;2.60;;;17.90;99.90;;;;;;5008352;28;20205;-71
2023/10/11 07:23:55;;;;;;;6.55;3.30;;;18.00;99.90;;;;;;5017890;28;20186;-72
2023/10/11 07:29:01;;;;;;;8.75;2.83;;;18.20;99.90;;;;;;5001470;28;20211;-71
2023/10/11 07:31:37;;;;;;;5.38;2.88;;;18.30;99.90;;;;;;4998516;28;20195;-72
2023/10/11 07:34:08;;;;;;;4.05;2.53;;;18.40;99.90;;;;;;4997723;28;20167;-72
2023/10/11 07:36:37;;;;;;;3.65;2.30;;;18.50;99.90;;;;;;4997313;28;20367;-73
2023/10/11 07:41:48;;;;;;;6.03;3.17;;;18.70;99.90;;;;;;5009948;28;20171;-72
2023/10/11 07:44:18;;;;;;;4.88;2.80;;;18.80;99.90;;;;;;5016508;28;20249;-72
2023/10/11 07:46:47;;;;;;;6.38;2.83;;;18.90;99.90;;;;;;5016310;28;20221;-71
2023/10/11 07:49:38;;;;;;;5.00;2.53;;;19.00;99.90;;;;;;4998756;28;20183;-71
2023/10/11 07:52:07;;;;;;;4.40;2.75;;;19.10;99.90;;;;;;4996479;28;20192;-71
2023/10/11 07:54:35;;;;;;;5.68;3.20;;;19.20;99.90;;;;;;4996918;28;20180;-70
2023/10/11 07:57:04;;;;;;;7.18;2.80;;;19.30;99.90;;;;;;4996583;28;20258;-70
2023/10/11 07:59:30;;;;;;;7.25;3.28;;;19.40;99.90;;;;;;4996626;28;20210;-71
2023/10/11 08:01:59;;;;;;;6.25;3.22;;;19.40;99.90;;;;;;4996542;28;20255;-69
2023/10/11 08:04:28;;;;;;;7.40;3.15;;;19.40;99.90;;;;;;4996657;28;20203;-71
2023/10/11 08:07:00;;;;;;;5.82;2.65;;;19.50;99.90;;;;;;4996734;28;20209;-71
2023/10/11 08:09:52;;;;;;;5.70;3.13;;;19.60;99.90;;;;;;4993210;28;20190;-72
2023/10/11 08:12:19;;;;;;;5.28;3.00;;;19.60;99.90;;;;;;4977856;28;20204;-72
2023/10/11 08:14:46;;;;;;;4.93;3.17;;;19.70;99.90;;;;;;4993324;28;20215;-70
2023/10/11 08:17:12;;;;;;;4.93;2.83;;;19.70;99.90;;;;;;4994105;28;20275;-72
2023/10/11 08:19:38;;;;;;;6.55;2.78;;;19.80;99.90;;;;;;4996627;28;20210;-72
2023/10/11 08:22:09;;;;;;;6.38;2.90;;;19.90;99.90;;;;;;4996126;28;20194;-72
2023/10/11 08:24:46;;;;;;;5.65;2.83;;;19.90;99.90;;;;;;4996299;28;20203;-72
2023/10/11 08:27:12;;;;;;;4.25;2.85;;;20.00;99.90;;;;;;4993257;28;20215;-72
2023/10/11 08:29:44;;;;;;;4.80;2.75;;;20.10;99.90;;;;;;4995292;28;20235;-71
2023/10/11 08:32:15;;;;;;;9.75;3.00;;;20.20;99.90;;;;;;5015376;28;20193;-72
2023/10/11 08:34:46;;;;;;;4.55;2.80;;;20.30;99.90;;;;;;4996203;28;20176;-72
2023/10/11 08:37:12;;;;;;;5.18;2.67;;;20.30;99.90;;;;;;4996874;28;20220;-71
2023/10/11 08:39:46;;;;;;;5.50;3.03;;;20.40;99.90;;;;;;4995854;28;20183;-71
2023/10/11 08:42:15;;;;;;;4.90;3.10;;;20.50;99.90;;;;;;4996006;28;20179;-71
2023/10/11 08:44:45;;;;;;;6.45;3.85;;;20.60;99.90;;;;;;4995888;28;20206;-72
2023/10/11 08:47:19;;;;;;;6.78;4.65;;;20.70;99.90;;;;;;4995828;28;20174;-72
2023/10/11 08:49:51;;;;;;;6.40;3.75;;;20.80;99.90;;;;;;4996037;28;20385;-72
2023/10/11 08:52:23;;;;;;;6.95;3.42;;;20.90;99.90;;;;;;4995723;28;20167;-71
2023/10/11 08:54:49;;;;;;;7.32;3.38;;;21.00;99.90;;;;;;4995638;28;20172;-70
2023/10/11 08:57:18;;;;;;;8.25;3.50;;;21.10;99.90;;;;;;4995454;28;20186;-70
2023/10/11 08:59:51;;;;;;;8.95;4.15;;;21.20;99.90;;;;;;4995622;28;20205;-72
2023/10/11 09:02:17;;;;;;;5.53;3.38;;;21.40;99.90;;;;;;5007908;28;20203;-71
2023/10/11 09:05:03;;;;;;;5.90;3.28;;;21.40;99.90;;;;;;5015150;28;20220;-72
2023/10/11 09:07:38;;;;;;;6.35;3.75;;;21.60;99.90;;;;;;4998204;28;20183;-71
2023/10/11 09:10:27;;;;;;;5.38;3.20;;;21.70;99.90;;;;;;4992074;28;20191;-72
2023/10/11 09:12:57;;;;;;;4.93;3.00;;;21.80;99.90;;;;;;4999073;28;20179;-72
2023/10/11 09:15:40;;;;;;;4.47;2.58;;;22.10;99.90;;;;;;4995240;28;20310;-71
2023/10/11 09:18:17;;;;;;;4.85;2.70;;;22.70;99.90;;;;;;5000817;28;20309;-72
2023/10/11 09:21:09;;;;;;;4.85;3.00;;;23.30;99.90;;;;;;5015211;28;20167;-73
2023/10/11 09:23:38;;;;;;;5.57;2.67;;;23.80;99.90;;;;;;5015803;28;20206;-71
2023/10/11 09:26:08;;;;;;;5.32;2.88;;;24.40;99.90;;;;;;5014933;28;20202;-71
2023/10/11 09:28:33;;;;;;;4.85;3.10;;;24.80;99.90;;;;;;5009176;28;20191;-71
2023/10/11 09:31:21;;;;;;;5.43;2.97;;;25.20;99.90;;;;;;4995892;28;20245;-72
2023/10/11 09:33:53;;;;;;;4.70;2.47;;;25.50;99.90;;;;;;4995560;28;20214;-71
2023/10/11 09:38:45;;;;;;;3.67;2.47;;;26.10;99.90;;;;;;5114172;23;20227;-72
2023/10/11 09:41:15;;;;;;;4.60;2.60;;;26.40;99.90;;;;;;4994894;28;20520;-72
2023/10/11 09:43:44;;;;;;;5.13;2.50;;;26.70;99.90;;;;;;4995886;28;20199;-72
2023/10/11 09:46:12;;;;;;;4.40;2.35;;;26.90;99.90;;;;;;4994931;28;20198;-73
2023/10/11 09:48:43;;;;;;;5.15;3.00;;;27.10;99.90;;;;;;4994845;28;20193;-73
2023/10/11 09:51:13;;;;;;;4.95;2.72;;;27.30;99.90;;;;;;4985142;28;20200;-70
2023/10/11 09:53:42;;;;;;;4.45;2.47;;;27.50;99.90;;;;;;4975381;28;20176;-72
2023/10/11 09:56:34;;;;;;;4.63;2.63;;;27.70;99.90;;;;;;4974999;28;20172;-71
2023/10/11 09:59:25;;;;;;;5.10;2.63;;;27.80;99.90;;;;;;4975464;28;20184;-68
2023/10/11 10:02:02;;;;;;;4.78;2.53;;;27.90;99.90;;;;;;4970718;28;20205;-72
2023/10/11 10:04:50;;;;;;;3.70;2.30;;;28.00;99.90;;;;;;4983283;28;20204;-72
2023/10/11 10:07:24;;;;;;;6.32;2.50;;;28.00;99.90;;;;;;4975628;28;20175;-73
2023/10/11 10:09:58;;;;;;;6.18;2.60;;;28.10;99.90;;;;;;4975744;28;20206;-72
2023/10/11 10:12:25;;;;;;;4.32;2.72;;;28.10;99.90;;;;;;4975467;28;20204;-73
2023/10/11 10:15:13;;;;;;;5.97;2.35;;;28.20;99.90;;;;;;4975401;28;20180;-72
2023/10/11 10:18:12;;;;;;;4.80;2.40;;;28.40;99.90;;;;;;4979008;28;20290;-72
2023/10/11 10:20:41;;;;;;;3.88;2.03;;;28.70;99.90;;;;;;4985175;28;20180;-71
2023/10/11 10:23:21;;;;;;;4.18;2.40;;;28.80;99.90;;;;;;4960417;28;20262;-74
2023/10/11 10:26:13;;;;;;;4.00;2.40;;;29.00;99.90;;;;;;4982301;28;20229;-74
2023/10/11 10:28:39;;;;;;;5.80;2.45;;;29.20;99.90;;;;;;4975868;28;20187;-72
2023/10/11 10:31:19;;;;;;;5.65;2.65;;;29.30;99.90;;;;;;5005298;28;20171;-72
2023/10/11 10:34:15;;;;;;;5.28;2.40;;;29.40;99.90;;;;;;4979859;28;20168;-73
2023/10/11 10:36:43;;;;;;;4.00;2.33;;;29.70;99.90;;;;;;4976248;28;20271;-74
2023/10/11 10:41:40;;;;;;;3.00;1.90;;;29.90;99.90;;;;;;4979641;28;20294;-73
2023/10/11 10:44:09;;;;;;;3.67;2.03;;;30.00;99.50;;;;;;4978467;28;20190;-73
2023/10/11 10:46:36;;;;;;;2.85;2.00;;;30.10;97.70;;;;;;4978668;28;20211;-74
2023/10/11 10:49:02;;;;;;;2.85;2.00;;;30.00;96.80;;;;;;4978605;28;20219;-73
2023/10/11 10:51:35;;;;;;;6.70;2.22;;;29.90;95.80;;;;;;4978396;28;20168;-73
2023/10/11 10:54:12;;;;;;;4.22;2.38;;;29.90;94.20;;;;;;4994718;28;20188;-73
2023/10/11 10:56:41;;;;;;;3.53;2.30;;;29.90;94.10;;;;;;4991499;28;20180;-73
2023/10/11 10:59:20;;;;;;;3.22;1.92;;;29.80;94.20;;;;;;4975030;28;20187;-72
2023/10/11 11:01:50;;;;;;;3.42;2.20;;;29.70;92.80;;;;;;4958895;29;20274;-73
2023/10/11 11:04:20;;;;;;;6.38;2.17;;;29.70;92.40;;;;;;4959243;29;20172;-72
2023/10/11 11:06:50;;;;;;;3.28;2.00;;;29.80;92.50;;;;;;4958527;29;20180;-73
2023/10/11 11:09:27;;;;;;;4.65;2.00;;;29.80;92.50;;;;;;4958682;28;20203;-73
2023/10/11 11:12:20;;;;;;;4.43;2.13;;;29.80;91.70;;;;;;4965914;28;20179;-73
2023/10/11 11:14:54;;;;;;;3.08;2.10;;;29.80;90.20;;;;;;4978199;28;20414;-73
2023/10/11 11:17:20;;;;;;;4.13;1.95;;;29.80;90.50;;;;;;4978253;28;20179;-71
2023/10/11 11:20:12;;;;;;;3.63;1.92;;;29.80;90.80;;;;;;4973826;28;20179;-73
2023/10/11 11:22:40;;;;;;;4.03;2.67;;;29.80;88.20;;;;;;4977550;28;20207;-72
2023/10/11 11:25:34;;;;;;;4.35;2.28;;;29.70;86.00;;;;;;4978071;28;20199;-73
2023/10/11 11:28:04;;;;;;;4.13;2.42;;;29.60;83.80;;;;;;4958196;28;20231;-73
2023/10/11 11:30:34;;;;;;;6.82;2.50;;;29.40;82.90;;;;;;4979540;28;20191;-73
2023/10/11 11:33:13;;;;;;;3.88;2.17;;;29.40;83.90;;;;;;4958411;28;20176;-73
2023/10/11 11:35:55;;;;;;;5.57;2.67;;;29.30;81.40;;;;;;4959600;28;20211;-74
2023/10/11 11:38:23;;;;;;;4.60;2.55;;;29.20;80.20;;;;;;4978491;28;20195;-72
2023/10/11 11:40:59;;;;;;;4.45;2.50;;;29.20;80.20;;;;;;4977964;28;20211;-72
2023/10/11 11:43:38;;;;;;;6.03;2.88;;;29.10;80.50;;;;;;4977947;28;20190;-72
2023/10/11 11:46:06;;;;;;;10.05;7.05;;;29.10;78.80;;;;;;4977890;28;20218;-73
2023/10/11 11:48:41;;;;;;;5.95;4.07;;;29.10;80.00;;;;;;4978304;28;20210;-73
2023/10/11 11:51:16;;;;;;;5.57;3.22;;;29.10;80.00;;;;;;4977770;28;20251;-70
2023/10/11 11:53:43;;;;;;;8.73;5.10;;;29.10;79.30;;;;;;4958409;29;20164;-71
2023/10/11 11:56:14;;;;;;;8.45;5.22;;;29.20;77.40;;;;;;4977033;28;20187;-72
2023/10/11 11:58:50;;;;;;;6.43;3.45;;;29.20;78.80;;;;;;4993889;28;20179;-72
2023/10/11 12:01:25;;;;;;;5.10;2.30;;;29.20;79.20;;;;;;4993403;28;20207;-73
2023/10/11 12:03:54;;;;;;;6.32;2.45;;;29.30;78.20;;;;;;4993448;28;20205;-73
2023/10/11 12:06:23;;;;;;;5.45;2.60;;;29.40;77.70;;;;;;4977041;28;20203;-74
2023/10/11 12:09:04;;;;;;;3.20;2.10;;;29.30;75.90;;;;;;4977172;28;20199;-70
2023/10/11 12:11:35;;;;;;;3.58;2.15;;;29.40;74.40;;;;;;4974044;28;20168;-72
2023/10/11 12:14:04;;;;;;;7.38;2.60;;;29.30;73.70;;;;;;4959461;28;20164;-73
2023/10/11 12:16:31;;;;;;;4.88;2.35;;;29.30;73.80;;;;;;4977427;28;20193;-73
2023/10/11 12:19:00;;;;;;;6.07;2.40;;;29.30;73.60;;;;;;4972034;28;20198;-73
2023/10/11 12:21:28;;;;;;;4.75;2.40;;;29.30;73.20;;;;;;4977041;28;20436;-72
2023/10/11 12:23:56;;;;;;;5.47;2.25;;;29.30;72.00;;;;;;5009183;28;20180;-73
2023/10/11 12:26:25;;;;;;;7.57;2.85;;;29.30;73.30;;;;;;4976662;28;20203;-72
2023/10/11 12:28:52;;;;;;;3.45;2.30;;;29.40;72.70;;;;;;4976925;28;20182;-74
2023/10/11 12:31:18;;;;;;;4.85;2.67;;;29.40;72.10;;;;;;4987416;28;20174;-74
2023/10/11 12:33:44;;;;;;;5.38;2.35;;;29.40;71.30;;;;;;4990667;28;20203;-72
2023/10/11 12:36:10;;;;;;;4.88;2.40;;;29.50;71.80;;;;;;4994704;28;20189;-71
2023/10/11 12:38:37;;;;;;;4.88;2.45;;;29.50;71.00;;;;;;4976307;28;20211;-71
2023/10/11 12:41:07;;;;;;;5.28;2.30;;;29.50;70.50;;;;;;4974868;28;20183;-73
2023/10/11 12:43:37;;;;;;;7.43;2.50;;;29.50;69.90;;;;;;4996444;28;20262;-72
2023/10/11 12:46:07;;;;;;;4.63;2.42;;;29.50;69.80;;;;;;4996154;28;20214;-72
2023/10/11 12:48:37;;;;;;;5.03;2.42;;;29.50;68.70;;;;;;4996200;28;20167;-72
2023/10/11 12:51:05;;;;;;;5.28;2.40;;;29.50;69.20;;;;;;4993728;28;20194;-72
2023/10/11 12:53:35;;;;;;;5.40;2.60;;;29.50;68.70;;;;;;4971304;28;20190;-72
2023/10/11 12:56:01;;;;;;;5.35;2.22;;;29.40;68.20;;;;;;4976455;28;20179;-73
2023/10/11 12:58:39;;;;;;;3.95;2.50;;;29.40;67.60;;;;;;4976574;28;20175;-72
2023/10/11 13:01:13;;;;;;;5.93;2.78;;;29.40;68.00;;;;;;4976402;28;20195;-73
2023/10/11 13:03:44;;;;;;;6.50;2.80;;;29.50;68.40;;;;;;4976242;28;20209;-74
2023/10/11 13:06:13;;;;;;;9.50;2.88;;;29.50;67.10;;;;;;4976306;28;20202;-75
2023/10/11 13:08:40;;;;;;;6.45;2.60;;;29.50;67.00;;;;;;4972883;28;20234;-73
2023/10/11 13:11:11;;;;;;;6.63;2.80;;;29.50;67.50;;;;;;4981630;28;20183;-73
2023/10/11 13:13:37;;;;;;;4.22;2.35;;;29.50;67.10;;;;;;4992327;28;20187;-72
2023/10/11 13:16:06;;;;;;;5.93;2.60;;;29.60;67.40;;;;;;4976378;28;20321;-73
2023/10/11 13:18:41;;;;;;;5.03;2.40;;;29.70;67.40;;;;;;4976342;28;20179;-72
2023/10/11 13:21:11;;;;;;;8.75;2.83;;;29.80;67.30;;;;;;4961788;28;20203;-72
2023/10/11 13:23:39;;;;;;;5.35;2.45;;;29.80;66.20;;;;;;4957094;28;20195;-72
2023/10/11 13:26:08;;;;;;;5.18;2.67;;;29.80;65.60;;;;;;4957292;28;20213;-72
2023/10/11 13:28:35;;;;;;;4.97;2.35;;;29.80;65.90;;;;;;4965661;28;20184;-73
2023/10/11 13:31:04;;;;;;;5.60;2.45;;;29.80;64.70;;;;;;4965358;28;20404;-72
2023/10/11 13:33:36;;;;;;;8.95;3.00;;;29.80;64.40;;;;;;4976711;28;20187;-70
2023/10/11 13:36:08;;;;;;;5.88;2.70;;;29.80;64.30;;;;;;4976569;28;20178;-71
2023/10/11 13:38:34;;;;;;;5.18;2.63;;;29.80;64.20;;;;;;4957721;28;20195;-72
2023/10/11 13:41:02;;;;;;;7.30;2.50;;;29.80;64.40;;;;;;4968861;28;20204;-73
2023/10/11 13:43:28;;;;;;;6.80;2.25;;;29.80;64.00;;;;;;4993825;28;20241;-72
2023/10/11 13:45:56;;;;;;;5.13;2.60;;;29.90;64.30;;;;;;4976976;28;20199;-72
2023/10/11 13:48:36;;;;;;;5.55;2.33;;;29.90;65.10;;;;;;4966570;28;20272;-69
2023/10/11 13:51:06;;;;;;;7.07;2.50;;;30.00;65.20;;;;;;4994702;28;20175;-71
2023/10/11 13:53:41;;;;;;;8.55;2.70;;;30.20;64.80;;;;;;5007772;28;20170;-72
2023/10/11 13:56:11;;;;;;;5.78;2.17;;;30.20;63.50;;;;;;4981870;28;20194;-75
2023/10/11 13:58:37;;;;;;;7.13;2.35;;;30.30;62.80;;;;;;4975522;28;20423;-74
2023/10/11 14:01:14;;;;;;;6.45;2.40;;;30.30;63.50;;;;;;4976831;28;20203;-71
2023/10/11 14:03:48;;;;;;;6.93;2.75;;;30.30;63.50;;;;;;4956874;29;20191;-72
2023/10/11 14:06:31;;;;;;;6.38;2.38;;;30.40;62.80;;;;;;4972703;28;20274;-74
2023/10/11 14:09:02;;;;;;;5.82;2.83;;;30.40;60.70;;;;;;4975646;28;20195;-72
2023/10/11 14:11:30;;;;;;;8.57;2.58;;;30.40;61.50;;;;;;4976537;28;20246;-74